This is the latest recevied weather packets stored in our database for station/object dl9mfl-6. If no packets are shown the sender has not sent any weather packets the latest 10 day(s).
| Time | Temp. | Humidity | Pressure | Rain* | Wind** | Luminosity | Snow |
|---|---|---|---|---|---|---|---|
| 1777741978 | 2.22° C | 82% | 1020.6 hPa | 0 mm | - | - | - |
| 1777741974 | 2.22° C | 81% | 1020.7 hPa | 0 mm | - | - | - |
| 1777741966 | 2.22° C | 81% | 1020.7 hPa | 0 mm | - | - | - |
| 1777741962 | 2.22° C | 81% | 1020.6 hPa | 0 mm | - | - | - |
| 1777741958 | 2.22° C | 81% | 1020.6 hPa | 0 mm | - | - | - |
| 1777741954 | 2.22° C | 81% | 1020.7 hPa | 0 mm | - | - | - |
| 1777741950 | 23.33° C | 37% | 1015.1 hPa | 0 mm | - | - | - |
| 1777741946 | 2.22° C | 81% | 1020.6 hPa | 0 mm | - | - | - |
| 1777741938 | 2.22° C | 81% | 1020.6 hPa | 0 mm | - | - | - |
| 1777741933 | 2.22° C | 81% | 1020.6 hPa | 0 mm | - | - | - |
| 1777741929 | 2.22° C | 81% | 1020.7 hPa | 0 mm | - | - | - |
| 1777741925 | 2.22° C | 81% | 1020.6 hPa | 0 mm | - | - | - |
| 1777741921 | 2.22° C | 81% | 1020.7 hPa | 0 mm | - | - | - |
| 1777741917 | 23.33° C | 37% | 1015 hPa | 0 mm | - | - | - |
| 1777741913 | 23.33° C | 36% | 1015 hPa | 0 mm | - | - | - |
| 1777741774 | 2.22° C | 80% | 1020.7 hPa | 0 mm | - | - | - |
| 1777741770 | 23.33° C | 39% | 1015.1 hPa | 0 mm | - | - | - |
| 1777741766 | 2.78° C | 80% | 1020.6 hPa | 0 mm | - | - | - |
| 1777741762 | 2.78° C | 80% | 1020.7 hPa | 0 mm | - | - | - |
| 1777741753 | 2.78° C | 80% | 1020.7 hPa | 0 mm | - | - | - |
| 1777741749 | 2.78° C | 80% | 1020.7 hPa | 0 mm | - | - | - |
| 1777741741 | 2.78° C | 79% | 1020.7 hPa | 0 mm | - | - | - |
| 1777741737 | 2.78° C | 79% | 1020.8 hPa | 0 mm | - | - | - |
| 1777741733 | 2.78° C | 79% | 1020.8 hPa | 0 mm | - | - | - |
| 1777741729 | 2.78° C | 79% | 1020.8 hPa | 0 mm | - | - | - |
* Rain latest hour (hover to see other rain measurements)
** Current wind speed in m/s (hover to see current wind gust speed)